sensor_id;sensor_type;location;lat;lon;timestamp;temperature;humidity
12843;DHT22;35724;49.324;-123.118;2022-10-18T00:03:37;28.70;52.10
12843;DHT22;35724;49.324;-123.118;2022-10-18T00:13:44;27.90;54.10
12843;DHT22;35724;49.324;-123.118;2022-10-18T00:24:27;26.70;56.80
12843;DHT22;35724;49.324;-123.118;2022-10-18T00:35:10;26.00;59.30
12843;DHT22;35724;49.324;-123.118;2022-10-18T00:45:24;25.70;61.80
12843;DHT22;35724;49.324;-123.118;2022-10-18T00:55:31;25.30;59.40
12843;DHT22;35724;49.324;-123.118;2022-10-18T01:05:44;24.60;60.40
12843;DHT22;35724;49.324;-123.118;2022-10-18T01:15:57;24.50;60.70
12843;DHT22;35724;49.324;-123.118;2022-10-18T01:26:15;24.40;61.30
12843;DHT22;35724;49.324;-123.118;2022-10-18T01:36:31;24.30;61.60
12843;DHT22;35724;49.324;-123.118;2022-10-18T01:46:41;24.50;61.90
12843;DHT22;35724;49.324;-123.118;2022-10-18T01:56:55;24.50;61.80
12843;DHT22;35724;49.324;-123.118;2022-10-18T02:07:09;24.60;61.70
12843;DHT22;35724;49.324;-123.118;2022-10-18T02:17:23;24.60;61.60
12843;DHT22;35724;49.324;-123.118;2022-10-18T02:27:31;24.60;62.00
12843;DHT22;35724;49.324;-123.118;2022-10-18T02:37:41;24.50;62.30
12843;DHT22;35724;49.324;-123.118;2022-10-18T03:00:43;24.30;61.90
12843;DHT22;35724;49.324;-123.118;2022-10-18T03:34:41;24.40;62.00
12843;DHT22;35724;49.324;-123.118;2022-10-18T03:44:48;24.40;62.40
12843;DHT22;35724;49.324;-123.118;2022-10-18T03:54:57;24.40;62.20
12843;DHT22;35724;49.324;-123.118;2022-10-18T04:05:05;24.40;62.20
12843;DHT22;35724;49.324;-123.118;2022-10-18T04:15:14;24.40;62.70
12843;DHT22;35724;49.324;-123.118;2022-10-18T04:25:21;24.50;65.20
12843;DHT22;35724;49.324;-123.118;2022-10-18T04:35:30;24.40;65.00
12843;DHT22;35724;49.324;-123.118;2022-10-18T04:45:37;24.30;64.70
12843;DHT22;35724;49.324;-123.118;2022-10-18T04:55:53;24.30;64.50
12843;DHT22;35724;49.324;-123.118;2022-10-18T05:18:13;24.30;64.10
12843;DHT22;35724;49.324;-123.118;2022-10-18T05:52:31;24.30;63.10
12843;DHT22;35724;49.324;-123.118;2022-10-18T06:02:40;24.30;63.10
12843;DHT22;35724;49.324;-123.118;2022-10-18T06:12:59;24.20;63.00
12843;DHT22;35724;49.324;-123.118;2022-10-18T06:23:17;24.20;62.80
12843;DHT22;35724;49.324;-123.118;2022-10-18T06:33:42;24.20;62.90
12843;DHT22;35724;49.324;-123.118;2022-10-18T06:43:50;24.20;63.00
12843;DHT22;35724;49.324;-123.118;2022-10-18T06:53:59;24.00;63.40
12843;DHT22;35724;49.324;-123.118;2022-10-18T07:04:21;23.90;63.10
12843;DHT22;35724;49.324;-123.118;2022-10-18T07:14:29;23.90;62.90
12843;DHT22;35724;49.324;-123.118;2022-10-18T07:24:36;23.80;62.90
12843;DHT22;35724;49.324;-123.118;2022-10-18T07:34:48;23.70;63.00
12843;DHT22;35724;49.324;-123.118;2022-10-18T07:44:57;23.70;63.00
12843;DHT22;35724;49.324;-123.118;2022-10-18T07:55:07;23.70;63.10
12843;DHT22;35724;49.324;-123.118;2022-10-18T08:05:14;23.70;63.60
12843;DHT22;35724;49.324;-123.118;2022-10-18T08:15:23;23.70;62.50
12843;DHT22;35724;49.324;-123.118;2022-10-18T08:25:32;23.70;62.60
12843;DHT22;35724;49.324;-123.118;2022-10-18T08:35:52;23.60;62.50
12843;DHT22;35724;49.324;-123.118;2022-10-18T08:46:16;23.60;62.30
12843;DHT22;35724;49.324;-123.118;2022-10-18T08:56:25;23.60;62.40
12843;DHT22;35724;49.324;-123.118;2022-10-18T09:06:37;23.60;62.20
12843;DHT22;35724;49.324;-123.118;2022-10-18T09:16:57;23.60;62.40
12843;DHT22;35724;49.324;-123.118;2022-10-18T09:27:14;23.50;62.10
12843;DHT22;35724;49.324;-123.118;2022-10-18T09:37:27;23.50;62.10
12843;DHT22;35724;49.324;-123.118;2022-10-18T09:47:51;23.50;62.30
12843;DHT22;35724;49.324;-123.118;2022-10-18T10:09:14;23.50;62.60
12843;DHT22;35724;49.324;-123.118;2022-10-18T10:19:32;23.50;61.80
12843;DHT22;35724;49.324;-123.118;2022-10-18T10:29:55;23.40;61.80
12843;DHT22;35724;49.324;-123.118;2022-10-18T10:40:22;23.40;61.70
12843;DHT22;35724;49.324;-123.118;2022-10-18T10:50:31;23.40;61.50
12843;DHT22;35724;49.324;-123.118;2022-10-18T11:01:20;23.40;61.50
12843;DHT22;35724;49.324;-123.118;2022-10-18T11:11:35;23.40;61.40
12843;DHT22;35724;49.324;-123.118;2022-10-18T11:21:49;23.40;61.30
12843;DHT22;35724;49.324;-123.118;2022-10-18T11:32:05;23.40;61.10
12843;DHT22;35724;49.324;-123.118;2022-10-18T11:42:25;23.40;60.70
12843;DHT22;35724;49.324;-123.118;2022-10-18T11:52:47;23.40;60.60
12843;DHT22;35724;49.324;-123.118;2022-10-18T12:03:15;23.40;60.70
12843;DHT22;35724;49.324;-123.118;2022-10-18T12:13:32;23.40;60.40
12843;DHT22;35724;49.324;-123.118;2022-10-18T12:23:53;23.40;60.60
12843;DHT22;35724;49.324;-123.118;2022-10-18T12:34:30;23.30;60.50
12843;DHT22;35724;49.324;-123.118;2022-10-18T12:44:40;23.30;60.40
12843;DHT22;35724;49.324;-123.118;2022-10-18T12:55:01;23.30;60.30
12843;DHT22;35724;49.324;-123.118;2022-10-18T13:16:28;23.20;60.20
12843;DHT22;35724;49.324;-123.118;2022-10-18T13:26:44;23.20;60.00
12843;DHT22;35724;49.324;-123.118;2022-10-18T13:37:22;23.20;60.00
12843;DHT22;35724;49.324;-123.118;2022-10-18T13:47:35;23.20;59.90
12843;DHT22;35724;49.324;-123.118;2022-10-18T13:57:52;23.20;59.90
12843;DHT22;35724;49.324;-123.118;2022-10-18T14:08:08;23.20;59.70
12843;DHT22;35724;49.324;-123.118;2022-10-18T14:18:29;23.20;59.60
12843;DHT22;35724;49.324;-123.118;2022-10-18T14:28:44;23.40;59.60
12843;DHT22;35724;49.324;-123.118;2022-10-18T14:51:33;23.70;59.70
12843;DHT22;35724;49.324;-123.118;2022-10-18T15:02:15;23.60;59.10
12843;DHT22;35724;49.324;-123.118;2022-10-18T15:12:41;23.70;59.30
12843;DHT22;35724;49.324;-123.118;2022-10-18T15:23:22;23.80;59.40
12843;DHT22;35724;49.324;-123.118;2022-10-18T15:33:33;23.90;59.70
12843;DHT22;35724;49.324;-123.118;2022-10-18T15:43:40;23.60;58.80
12843;DHT22;35724;49.324;-123.118;2022-10-18T15:53:52;23.40;58.90
12843;DHT22;35724;49.324;-123.118;2022-10-18T16:04:01;23.20;59.20
12843;DHT22;35724;49.324;-123.118;2022-10-18T16:14:12;23.20;59.10
12843;DHT22;35724;49.324;-123.118;2022-10-18T16:24:20;23.10;59.60
12843;DHT22;35724;49.324;-123.118;2022-10-18T16:34:53;22.90;59.20
12843;DHT22;35724;49.324;-123.118;2022-10-18T16:45:01;23.20;59.30
12843;DHT22;35724;49.324;-123.118;2022-10-18T16:55:10;23.50;59.40
12843;DHT22;35724;49.324;-123.118;2022-10-18T17:05:26;23.60;59.40
12843;DHT22;35724;49.324;-123.118;2022-10-18T17:15:36;23.70;59.60
12843;DHT22;35724;49.324;-123.118;2022-10-18T17:25:45;23.80;59.90
12843;DHT22;35724;49.324;-123.118;2022-10-18T17:36:12;23.90;60.50
12843;DHT22;35724;49.324;-123.118;2022-10-18T17:46:20;24.00;61.00
12843;DHT22;35724;49.324;-123.118;2022-10-18T17:56:29;23.90;62.10
12843;DHT22;35724;49.324;-123.118;2022-10-18T18:06:38;23.90;62.30
12843;DHT22;35724;49.324;-123.118;2022-10-18T18:16:46;23.90;62.70
12843;DHT22;35724;49.324;-123.118;2022-10-18T18:26:58;23.90;62.80
12843;DHT22;35724;49.324;-123.118;2022-10-18T18:37:09;23.90;63.40
12843;DHT22;35724;49.324;-123.118;2022-10-18T18:47:16;23.90;63.40
12843;DHT22;35724;49.324;-123.118;2022-10-18T18:57:29;24.00;62.40
12843;DHT22;35724;49.324;-123.118;2022-10-18T19:07:37;23.50;62.00
12843;DHT22;35724;49.324;-123.118;2022-10-18T19:17:47;23.60;61.80
12843;DHT22;35724;49.324;-123.118;2022-10-18T19:27:56;23.90;60.90
12843;DHT22;35724;49.324;-123.118;2022-10-18T19:38:08;23.90;60.60
12843;DHT22;35724;49.324;-123.118;2022-10-18T19:48:15;23.20;62.70
12843;DHT22;35724;49.324;-123.118;2022-10-18T19:58:25;22.80;64.50
12843;DHT22;35724;49.324;-123.118;2022-10-18T20:08:33;22.70;65.50
12843;DHT22;35724;49.324;-123.118;2022-10-18T20:18:43;23.00;64.50
12843;DHT22;35724;49.324;-123.118;2022-10-18T20:28:51;23.20;63.60
12843;DHT22;35724;49.324;-123.118;2022-10-18T20:39:03;23.00;63.20
12843;DHT22;35724;49.324;-123.118;2022-10-18T20:49:13;23.10;63.00
12843;DHT22;35724;49.324;-123.118;2022-10-18T20:59:40;23.20;63.40
12843;DHT22;35724;49.324;-123.118;2022-10-18T21:09:48;23.10;63.80
12843;DHT22;35724;49.324;-123.118;2022-10-18T21:19:57;22.80;65.30
12843;DHT22;35724;49.324;-123.118;2022-10-18T21:30:05;22.50;66.30
12843;DHT22;35724;49.324;-123.118;2022-10-18T21:40:15;23.00;65.00
12843;DHT22;35724;49.324;-123.118;2022-10-18T21:50:22;23.20;64.80
12843;DHT22;35724;49.324;-123.118;2022-10-18T22:00:30;23.20;65.10
12843;DHT22;35724;49.324;-123.118;2022-10-18T22:10:38;23.20;66.00
12843;DHT22;35724;49.324;-123.118;2022-10-18T22:20:55;23.60;65.50
12843;DHT22;35724;49.324;-123.118;2022-10-18T22:31:02;24.00;64.20
12843;DHT22;35724;49.324;-123.118;2022-10-18T22:41:12;24.20;64.40
12843;DHT22;35724;49.324;-123.118;2022-10-18T22:51:19;24.20;64.50
12843;DHT22;35724;49.324;-123.118;2022-10-18T23:01:28;24.50;64.30
12843;DHT22;35724;49.324;-123.118;2022-10-18T23:11:36;24.60;63.90
12843;DHT22;35724;49.324;-123.118;2022-10-18T23:21:48;26.40;60.30
12843;DHT22;35724;49.324;-123.118;2022-10-18T23:31:55;29.20;54.30
12843;DHT22;35724;49.324;-123.118;2022-10-18T23:42:04;30.30;52.30
12843;DHT22;35724;49.324;-123.118;2022-10-18T23:52:11;30.90;51.10
